Stations météo

réclame
Mon MeteoGroup
Marknesse aws, Pays-Bas (6273): Température de l'air & dewpoint: 10.07.2020 16:00:00 - 16.07.2020 16:00:00 (CEST)Marknesse aws, Pays-Bas (6273): Température de l'air 5cm & Température de l'air -5cm: 10.07.2020 16:00:00 - 16.07.2020 16:00:00 (CEST)Marknesse aws, Pays-Bas (6273): Température de l'air -20cm & Température de l'air -100cm: 10.07.2020 16:00:00 - 16.07.2020 16:00:00 (CEST)Marknesse aws, Pays-Bas (6273): Vitesse du vent & gusts: 10.07.2020 16:00:00 - 16.07.2020 16:00:00 (CEST)Marknesse aws, Pays-Bas (6273): Direction du vent: 10.07.2020 16:00:00 - 16.07.2020 16:00:00 (CEST)Marknesse aws, Pays-Bas (6273): visibility: 10.07.2020 16:00:00 - 16.07.2020 16:00:00 (CEST)Marknesse aws, Pays-Bas (6273): Quantités de précipitations: 10.07.2020 16:00:00 - 16.07.2020 16:00:00 (CEST)
Date & Time tt [°C] td [°C] tt 5cm [°C] tt -5cm [°C] tt -20cm [°C] tt -100cm [°C] ff [km/h] ff [knt] fx [km/h] fx [knt] dd vv [km] rr [mm]
16.07.2020 16:00:00 18,6 14,8 19,4 20,5 18,4 16,3 14 8 25 14 NW 73 0,0
16.07.2020 15:00:00 17,6 14,8 19,2 20,1 18,4 16,3 4 2 11 6 NNE 75 0,0
16.07.2020 14:00:00 16,3 14,8 17,0 19,9 18,3 16,3 7 4 14 8 W 13 0,7
16.07.2020 13:00:00 17,1 14,6 18,0 19,0 18,3 16,3 4 2 11 6 SW 66 0,0
16.07.2020 12:00:00 16,2 14,6 17,1 18,6 18,4 16,3 7 4 11 6 S 20 0,0
16.07.2020 11:00:00 15,7 15,2 15,9 17,9 18,4 16,3 7 4 11 6 SE 6 0,3
16.07.2020 10:00:00 14,5 14,4 15,0 17,8 18,5 16,3 7 4 14 8 SE 2,6 2,8
16.07.2020 09:00:00 14,5 14,1 15,0 17,8 18,5 16,3 7 4 11 6 SSE 2,1 0,6
16.07.2020 08:00:00 14,3 13,7 14,6 17,8 18,6 16,3 7 4 11 6 S 4,6 0,0
16.07.2020 07:00:00 14,4 14,1 14,6 17,8 18,7 16,3 4 2 7 4 SE 6 0,0
16.07.2020 06:00:00 14,2 14,0 14,3 17,9 18,7 16,3 7 4 11 6 SSE 5 0,0
16.07.2020 05:00:00 14,0 13,6 14,2 18,1 18,8 16,3 4 2 7 4 SSE 8 0,0
16.07.2020 04:00:00 13,8 13,6 14,0 18,2 18,9 16,2 4 2 7 4 SE 8 0,0
16.07.2020 03:00:00 13,8 13,6 14,0 18,4 18,9 16,2 4 2 4 2 ESE 6 0,0
16.07.2020 02:00:00 13,8 13,4 13,9 18,6 19,0 16,2 4 2 14 8 S 7 0,5
16.07.2020 01:00:00 13,8 13,1 14,0 18,9 19,0 16,2 11 6 18 10 SW 5 0,1
16.07.2020 00:00:00 14,0 13,2 13,3 19,1 19,0 16,2 4 2 4 2 ENE 31 0,0
15.07.2020 23:00:00 14,6 13,0 13,2 19,6 19,0 16,2 4 2 7 4 NE 31 0,0
15.07.2020 22:00:00 15,7 12,8 14,6 20,2 19,0 16,2 4 2 11 6 NNE 33 0,0
15.07.2020 21:00:00 16,7 11,8 16,5 20,7 18,9 16,2 7 4 11 6 NNW 75 0,0
15.07.2020 20:00:00 17,3 11,8 17,8 21,1 18,8 16,2 11 6 18 10 NW 69 0,0
15.07.2020 19:00:00 17,6 11,6 18,0 21,7 18,6 16,2 14 8 22 12 NW 73 0,0
15.07.2020 18:00:00 18,9 9,6 19,9 22,1 18,4 16,2 14 8 25 14 NW 75 0,0
15.07.2020 17:00:00 19,6 9,7 21,5 22,1 18,2 16,2 14 8 29 16 WNW 75 0,0
15.07.2020 16:00:00 19,4 11,6 21,0 21,8 18,0 16,2 14 8 29 16 WNW 75 0,0
15.07.2020 15:00:00 18,8 10,1 21,1 21,1 17,9 16,2 18 10 29 16 WNW 75 0,0
15.07.2020 14:00:00 18,5 10,3 20,0 20,4 17,8 16,2 11 6 25 14 W 75 0,0
15.07.2020 13:00:00 18,0 11,4 20,4 19,5 17,7 16,2 14 8 22 12 NW 75 0,0
15.07.2020 12:00:00 17,1 12,4 17,9 18,2 17,7 16,2 11 6 14 8 NNW 75 0,0
15.07.2020 11:00:00 15,3 12,4 16,0 18,0 17,7 16,2 11 6 22 12 NW 56 0,0
15.07.2020 10:00:00 16,5 12,4 17,9 17,1 17,8 16,2 11 6 22 12 NW 75 0,0
15.07.2020 09:00:00 15,0 12,2 15,4 16,7 17,9 16,2 11 6 18 10 NW 74 0,0
15.07.2020 08:00:00 13,9 12,2 14,2 16,4 17,9 16,2 7 4 14 8 NW 74 0,0
15.07.2020 07:00:00 13,6 11,9 13,4 16,4 18,0 16,2 7 4 7 4 W 74 0,0
15.07.2020 06:00:00 13,0 11,8 12,7 16,4 18,1 16,2 4 2 11 6 W 73 0,0
15.07.2020 05:00:00 12,7 11,7 12,3 16,5 18,2 16,2 7 4 14 8 W 71 0,0
15.07.2020 04:00:00 11,8 11,0 11,4 16,6 18,4 16,2 7 4 11 6 W 24 0,0
15.07.2020 03:00:00 10,1 10,0 9,2 16,9 18,5 16,2 4 2 11 6 SW 17 0,0
15.07.2020 02:00:00 10,8 10,5 10,0 17,3 18,5 16,2 4 2 7 4 SW 35 0,0
15.07.2020 01:00:00 11,5 11,0 10,7 17,6 18,6 16,2 4 2 7 4 SW 25 0,0
15.07.2020 00:00:00 12,2 10,8 11,0 18,1 18,6 16,1 7 4 7 4 WNW 72 0,0
14.07.2020 23:00:00 13,2 11,8 12,8 18,5 18,7 16,1 7 4 11 6 NW 58 0,0
14.07.2020 22:00:00 13,3 12,1 12,8 18,9 18,7 16,1 4 2 22 12 NW 62 0,0
14.07.2020 21:00:00 15,8 12,5 16,3 19,1 18,7 16,1 11 6 18 10 NW 75 0,0
14.07.2020 20:00:00 15,7 14,7 16,0 19,2 18,7 16,1 7 4 11 6 W 54 0,0
14.07.2020 19:00:00 15,5 14,5 15,9 19,3 18,6 16,1 7 4 14 8 W 49 0,0
14.07.2020 18:00:00 15,0 13,8 15,6 19,5 18,6 16,1 7 4 14 8 SW 15 0,1
14.07.2020 17:00:00 15,5 13,5 16,3 19,5 18,6 16,1 4 2 7 4 SW 72 0,0
14.07.2020 16:00:00 15,4 13,8 15,7 19,1 18,6 16,1 0 0 11 6 N 74 0,1
14.07.2020 15:00:00 14,8 14,1 15,7 18,8 18,6 16,1 4 2 18 10 N 4,6 1,5
14.07.2020 14:00:00 14,4 13,7 15,0 18,9 18,7 16,1 14 8 25 14 WNW 6 2,5
14.07.2020 13:00:00 15,2 13,5 15,5 19,0 18,7 16,1 7 4 22 12 SSW 15 5,3
14.07.2020 12:00:00 16,9 15,2 17,5 19,2 18,7 16,1 7 4 14 8 W 17 0,4
14.07.2020 11:00:00 17,8 15,4 18,5 18,9 18,7 16,1 7 4 18 10 SW 14 0,0
14.07.2020 10:00:00 16,9 15,3 17,2 18,7 18,7 16,1 11 6 18 10 SSW 12 0,3
14.07.2020 09:00:00 16,7 14,0 17,0 18,6 18,8 16,1 11 6 18 10 SSW 4,3 0,0
14.07.2020 08:00:00 16,0 14,0 16,2 18,5 18,9 16,1 7 4 11 6 SSW 20 0,0
14.07.2020 07:00:00 15,7 13,4 15,6 18,5 18,9 16,1 7 4 11 6 S 24 0,0
14.07.2020 06:00:00 15,5 13,8 15,4 18,7 19,0 16,1 4 2 7 4 SSW 24 0,0
14.07.2020 05:00:00 15,5 13,5 15,4 18,8 19,1 16,1 4 2 7 4 SW 22 0,0
14.07.2020 04:00:00 15,9 12,9 15,5 19,0 19,2 16,1 4 2 11 6 WSW 38 0,0
14.07.2020 03:00:00 16,1 12,9 15,7 19,2 19,2 16,1 4 2 7 4 S 52 0,0
14.07.2020 02:00:00 16,3 13,2 15,6 19,4 19,3 16,1 4 2 4 2 S 54 0,0
14.07.2020 01:00:00 15,1 13,7 15,1 19,7 19,3 16,1 4 2 7 4 SSW 41 0,0
14.07.2020 00:00:00 15,5 14,0 15,3 20,0 19,3 16,1 4 2 4 2 SSE 57 0,0
13.07.2020 23:00:00 14,9 13,5 14,1 20,5 19,3 16,1 4 2 7 4 WSW 32 0,0
13.07.2020 22:00:00 14,7 13,4 13,9 21,2 19,3 16,1 4 2 4 2 SSE 27 0,0
13.07.2020 21:00:00 18,7 11,3 19,0 21,9 19,1 16,1 4 2 11 6 WNW 68 0,0
13.07.2020 20:00:00 20,7 11,1 21,2 22,3 19,0 16,1 7 4 22 12 WNW 24 0,0
13.07.2020 19:00:00 21,7 9,7 23,0 22,8 18,8 16,1 11 6 22 12 W 5 0,0
13.07.2020 18:00:00 21,8 10,1 23,3 23,1 18,5 16,1 11 6 25 14 W 74 0,0
13.07.2020 17:00:00 21,8 10,2 23,7 23,2 18,3 16,1 11 6 22 12 W 75 0,0
13.07.2020 16:00:00 21,9 9,4 24,2 22,8 18,0 16,1 11 6 22 12 WSW 75 0,0
13.07.2020 15:00:00 20,8 10,3 22,8 22,3 17,8 16,1 11 6 18 10 W 75 0,0
13.07.2020 14:00:00 20,5 10,1 22,8 21,6 17,6 16,1 11 6 18 10 W 75 0,0
13.07.2020 13:00:00 19,9 9,8 23,0 20,4 17,5 16,1 4 2 18 10 WSW 75 0,0
13.07.2020 12:00:00 19,5 10,1 22,3 19,1 17,4 16,1 7 4 14 8 W 75 0,0
13.07.2020 11:00:00 19,2 10,0 21,0 17,8 17,4 16,1 4 2 11 6 SSE 10 0,0
13.07.2020 10:00:00 18,2 12,3 20,2 16,8 17,5 16,1 4 2 11 6 ESE 73 0,0
13.07.2020 09:00:00 16,4 12,6 18,5 16,0 17,6 16,1 4 2 7 4 E 59 0,0
13.07.2020 08:00:00 13,7 11,7 14,7 15,5 17,7 16,1 4 2 4 2 NNE 63 0,0
13.07.2020 07:00:00 10,6 10,4 10,7 15,4 17,9 16,1 4 2 7 4 N 23 0,0
13.07.2020 06:00:00 8,7 8,7 6,8 15,7 18,0 16,1 4 2 7 4 ESE 16 0,0
13.07.2020 05:00:00 8,5 8,5 6,8 16,0 18,1 16,1 0 0 4 2 N 0,9 0,0
13.07.2020 04:00:00 9,4 9,2 7,3 16,4 18,2 16,1 0 0 4 2 N 4,1 0,0
13.07.2020 03:00:00 9,6 9,4 7,2 16,8 18,4 16,1 0 0 4 2 N 0,8 0,0
13.07.2020 02:00:00 9,9 9,7 8,0 17,3 18,4 16,1 0 0 4 2 N 6 0,0
13.07.2020 01:00:00 10,4 9,8 8,7 17,9 18,5 16,1 4 2 7 4 ENE 54 0,0
13.07.2020 00:00:00 10,9 10,1 9,0 18,5 18,5 16,1 4 2 7 4 NE 75 0,0
12.07.2020 23:00:00 12,7 10,4 10,3 19,2 18,5 16,1 4 2 7 4 NNE 75 0,0
12.07.2020 22:00:00 13,7 11,1 12,6 19,9 18,5 16,0 7 4 14 8 N 75 0,0
12.07.2020 21:00:00 16,5 10,4 16,6 20,5 18,3 16,0 11 6 18 10 NNW 75 0,0
12.07.2020 20:00:00 17,0 10,2 16,9 21,2 18,2 16,0 11 6 18 10 N 75 0,0
12.07.2020 19:00:00 18,4 10,3 18,8 21,7 18,0 16,0 11 6 18 10 NNW 75 0,0
12.07.2020 18:00:00 18,5 9,6 18,4 22,1 17,7 16,0 14 8 22 12 NNW 75 0,0
12.07.2020 17:00:00 19,2 9,7 21,5 22,1 17,5 16,0 11 6 18 10 NNW 75 0,0
12.07.2020 16:00:00 19,6 10,0 22,3 21,7 17,3 16,0 7 4 18 10 NW 75 0,0
12.07.2020 15:00:00 19,1 9,7 22,8 20,7 17,1 16,0 7 4 18 10 W 75 0,0
12.07.2020 14:00:00 18,8 10,7 21,0 19,3 17,0 16,0 11 6 18 10 WNW 75 0,0
12.07.2020 13:00:00 18,1 9,5 18,0 18,6 16,9 16,0 4 2 11 6 E 75 0,0
12.07.2020 12:00:00 16,9 9,7 18,1 17,7 16,9 16,0 4 2 14 8 NNE 75 0,0
12.07.2020 11:00:00 16,8 10,4 17,5 16,9 16,9 16,0 7 4 14 8 WNW 75 0,0
12.07.2020 10:00:00 16,1 10,7 15,7 16,0 17,0 16,0 7 4 14 8 NNW 74 0,0
12.07.2020 09:00:00 15,5 11,1 17,2 15,4 17,1 16,0 7 4 11 6 NNW 74 0,0
12.07.2020 08:00:00 14,0 12,0 15,5 14,9 17,2 16,0 0 0 4 2 N 75 0,0
12.07.2020 07:00:00 10,9 10,7 11,2 14,8 17,4 16,0 4 2 4 2 N 9 0,0
12.07.2020 06:00:00 8,1 8,1 6,2 15,0 17,5 16,0 0 0 4 2 N 0,3 0,0
12.07.2020 05:00:00 8,1 8,1 6,2 15,3 17,6 16,0 4 2 4 2 WSW 0,3 0,0
12.07.2020 04:00:00 8,1 8,1 6,7 15,7 17,8 16,0 4 2 4 2 W 0,4 0,0
12.07.2020 03:00:00 9,4 9,2 6,9 16,1 17,9 16,0 4 2 7 4 SW 3,5 0,0
12.07.2020 02:00:00 9,0 9,0 7,3 16,5 18,0 16,0 0 0 4 2 N 2,3 0,0
12.07.2020 01:00:00 10,3 10,1 7,8 16,9 18,0 16,0 4 2 4 2 W 39 0,0
12.07.2020 00:00:00 10,5 9,8 8,3 17,5 18,1 16,0 4 2 7 4 W 55 0,0
11.07.2020 23:00:00 12,0 10,4 9,6 18,1 18,1 16,0 7 4 11 6 WNW 70 0,0
11.07.2020 22:00:00 12,8 10,6 11,6 18,7 18,0 16,0 7 4 22 12 NW 74 0,0
11.07.2020 21:00:00 14,8 11,0 14,6 19,3 18,0 16,0 11 6 22 12 NW 75 0,0
11.07.2020 20:00:00 16,2 10,7 16,6 20,0 17,8 16,0 18 10 29 16 NW 75 0,0
11.07.2020 19:00:00 17,0 11,0 17,3 20,5 17,7 16,0 22 12 29 16 NW 75 0,0
11.07.2020 18:00:00 17,2 10,3 18,0 20,8 17,5 16,0 18 10 32 18 NW 75 0,0
11.07.2020 17:00:00 18,3 9,4 20,3 20,8 17,3 16,0 22 12 32 18 NW 75 0,0
11.07.2020 16:00:00 17,8 10,1 19,9 20,4 17,1 16,0 22 12 32 18 WNW 75 0,0
11.07.2020 15:00:00 18,2 11,1 19,5 19,9 16,9 16,0 14 8 25 14 WNW 75 0,0
11.07.2020 14:00:00 18,2 10,6 20,1 19,1 16,8 16,0 14 8 25 14 W 75 0,0
11.07.2020 13:00:00 17,0 11,2 18,8 18,3 16,7 16,0 14 8 25 14 W 75 0,0
11.07.2020 12:00:00 16,6 9,2 18,6 17,6 16,7 16,0 14 8 22 12 W 75 0,0
11.07.2020 11:00:00 16,3 10,3 18,4 16,7 16,7 16,0 14 8 22 12 W 75 0,0
11.07.2020 10:00:00 15,4 9,8 16,5 16,0 16,7 16,0 14 8 22 12 W 75 0,0
11.07.2020 09:00:00 15,1 11,2 15,5 15,5 16,8 16,1 7 4 18 10 W 75 0,0
11.07.2020 08:00:00 12,7 11,2 12,4 15,1 16,8 16,1 4 2 4 2 SW 73 0,0
11.07.2020 07:00:00 11,3 10,9 11,4 15,0 16,9 16,1 4 2 4 2 S 28 0,0
11.07.2020 06:00:00 11,4 11,0 11,1 15,1 17,0 16,1 4 2 4 2 ESE 32 0,0
11.07.2020 05:00:00 11,3 11,0 11,3 15,1 17,1 16,1 4 2 7 4 SE 40 0,0
11.07.2020 04:00:00 11,5 11,1 11,4 15,1 17,2 16,1 4 2 11 6 SW 34 0,2
11.07.2020 03:00:00 11,1 10,5 10,6 15,3 17,4 16,1 7 4 11 6 SW 8 2,9
11.07.2020 02:00:00 8,4 8,1 7,0 15,6 17,5 16,1 0 0 4 2 N 25 0,0
11.07.2020 01:00:00 9,5 9,4 6,9 16,0 17,5 16,1 4 2 7 4 SSW 34 0,0
11.07.2020 00:00:00 10,1 9,5 8,2 16,5 17,6 16,1 4 2 7 4 SW 45 0,0
10.07.2020 23:00:00 11,0 9,4 8,5 17,0 17,6 16,1 4 2 7 4 WNW 65 0,0
10.07.2020 22:00:00 12,0 9,7 10,6 17,6 17,6 16,1 7 4 18 10 NW 74 0,0
10.07.2020 21:00:00 14,1 9,5 13,9 18,2 17,5 16,1 14 8 29 16 NW 75 0,0
10.07.2020 20:00:00 15,4 9,4 16,0 18,6 17,4 16,1 18 10 29 16 NW 75 0,0
10.07.2020 19:00:00 15,4 9,0 15,9 18,7 17,4 16,1 22 12 32 18 NNW 75 0,0
10.07.2020 18:00:00 16,8 9,5 16,9 18,7 17,3 16,1 22 12 29 16 WNW 75 0,0
10.07.2020 17:00:00 16,4 8,9 17,4 18,7 17,2 16,1 18 10 29 16 WNW 75 0,0
10.07.2020 16:00:00 17,3 10,8 17,1 18,6 17,1 16,1 22 12 32 18 NW 75 0,0

tt = Température de l'air
td = dewpoint
tt 5cm = Température de l'air 5cm
tt -5cm = Température de l'air -5cm
tt -20cm = Température de l'air -20cm
tt -100cm = Température de l'air -100cm
ff = Vitesse du vent
fx = gusts
dd = Direction du vent
vv = visibility
rr = Quantités de précipitations

stations d'obs. à proximité